Terminal Aerodrome Forecast
Issued by NWS Birmingham, AL

Home | Current Version | Previous Version | Text Only | Print | Product List | Glossary On
Versions: 1 2 3 4 5 6 7 8 9 10 11
898
FTUS44 KBMX 072340
TAFBHM
TAF
KBHM 072340Z 0800/0824 28008KT P6SM SCT250
     FM080400 24005KT P6SM SCT150
     FM081100 25006KT P6SM BKN050 BKN130
     FM081500 28013G23KT P6SM BKN050=

USA.gov is the U.S. government's official web portal to all federal, state and local government web resources and services.